Observation data for Northwest Lubbock on 01/21/2019      Previous  Date  Next       Current Mesonet Observations  Soil Data  Daily Summary Page  Observations in Plain Language
KLBW 210600Z 20014G20KT 09/M03 A30 RMK A01 T00851028  RH  045%=      5-min Rain = 0
KLBW 210605Z 20015G22KT 09/M03 A30 RMK A01 T00851028  RH  045%=      5-min Rain = 0
KLBW 210610Z 20015G22KT 08/M03 A2999 RMK A01 T00841028  RH  045%=      5-min Rain = 0
KLBW 210615Z 20014G20KT 08/M03 A2999 RMK A01 T00831028  RH  046%=      5-min Rain = 0
KLBW 210620Z 21015G21KT 08/M03 A2999 RMK A01 T00831028  RH  046%=      5-min Rain = 0
KLBW 210625Z 21014G19KT 08/M03 A2999 RMK A01 T00831028  RH  046%=      5-min Rain = 0
KLBW 210630Z 21015G20KT 08/M03 A2999 RMK A01 T00841028  RH  046%=      5-min Rain = 0
KLBW 210635Z 21015KT 08/M03 A2999 RMK A01 T00841028  RH  046%=      5-min Rain = 0
KLBW 210640Z 20014G20KT 08/M03 A2999 RMK A01 T00831028  RH  046%=      5-min Rain = 0
KLBW 210645Z 21015G20KT 08/M03 A2998 RMK A01 T00831028  RH  046%=      5-min Rain = 0
KLBW 210650Z 21014KT 08/M03 A2998 RMK A01 T00811028  RH  046%=      5-min Rain = 0
KLBW 210655Z 21013G20KT 08/M03 A2998 RMK A01 T00801028  RH  047%=      5-min Rain = 0
KLBW 210700Z 21013KT 08/M03 A2998 RMK A01 T00801028  RH  047%=      5-min Rain = 0
KLBW 210705Z 21012G17KT 08/M03 A2998 RMK A01 T00791028  RH  047%=      5-min Rain = 0
KLBW 210710Z 21013KT 08/M03 A2998 RMK A01 T00781027  RH  048%=      5-min Rain = 0
KLBW 210715Z 21013KT 08/M03 A2998 RMK A01 T00771027  RH  048%=      5-min Rain = 0
KLBW 210720Z 21013KT 08/M03 A2998 RMK A01 T00751027  RH  049%=      5-min Rain = 0
KLBW 210725Z 21012G17KT 07/M03 A2998 RMK A01 T00741027  RH  049%=      5-min Rain = 0
KLBW 210730Z 21013G18KT 08/M03 A2998 RMK A01 T00751027  RH  049%=      5-min Rain = 0
KLBW 210735Z 20012G19KT 07/M03 A2997 RMK A01 T00741027  RH  049%=      5-min Rain = 0
KLBW 210740Z 21012G18KT 07/M03 A2997 RMK A01 T00741027  RH  049%=      5-min Rain = 0
KLBW 210745Z 20011G16KT 07/M03 A2997 RMK A01 T00731027  RH  049%=      5-min Rain = 0
KLBW 210750Z 20013G21KT 07/M03 A2996 RMK A01 T00731026  RH  050%=      5-min Rain = 0
KLBW 210755Z 20014G19KT 07/M03 A2996 RMK A01 T00711027  RH  050%=      5-min Rain = 0
KLBW 210800Z 20013G19KT 07/M03 A2996 RMK A01 T00691027  RH  051%=      5-min Rain = 0
KLBW 210805Z 20014KT 07/M03 A2996 RMK A01 T00681027  RH  051%=      5-min Rain = 0
KLBW 210810Z 20013KT 07/M03 A2996 RMK A01 T00661027  RH  052%=      5-min Rain = 0
KLBW 210815Z 20011G17KT 06/M03 A2996 RMK A01 T00641027  RH  052%=      5-min Rain = 0
KLBW 210820Z 20012G17KT 07/M03 A2996 RMK A01 T00651027  RH  052%=      5-min Rain = 0
KLBW 210825Z 20011KT 06/M03 A2996 RMK A01 T00641027  RH  053%=      5-min Rain = 0
KLBW 210830Z 20012G17KT 06/M03 A2995 RMK A01 T00631026  RH  053%=      5-min Rain = 0
KLBW 210835Z 20012G17KT 06/M03 A2995 RMK A01 T00641025  RH  053%=      5-min Rain = 0
KLBW 210840Z 20011KT 06/M03 A2995 RMK A01 T00631025  RH  054%=      5-min Rain = 0
KLBW 210845Z 21012G18KT 06/M03 A2995 RMK A01 T00631025  RH  054%=      5-min Rain = 0
KLBW 210850Z 20012G17KT 06/M02 A2995 RMK A01 T00631024  RH  054%=      5-min Rain = 0
KLBW 210855Z 20011G16KT 06/M02 A2994 RMK A01 T00631024  RH  054%=      5-min Rain = 0
KLBW 210900Z 20011G17KT 06/M02 A2994 RMK A01 T00621024  RH  055%=      5-min Rain = 0
KLBW 210905Z 20011G16KT 06/M02 A2994 RMK A01 T00601024  RH  055%=      5-min Rain = 0
KLBW 210910Z 20012KT 06/M02 A2994 RMK A01 T00601023  RH  056%=      5-min Rain = 0
KLBW 210915Z 20011G16KT 06/M02 A2993 RMK A01 T00601023  RH  056%=      5-min Rain = 0
KLBW 210920Z 20011G18KT 06/M02 A2993 RMK A01 T00601023  RH  056%=      5-min Rain = 0
KLBW 210925Z 20012G17KT 06/M02 A2993 RMK A01 T00611022  RH  056%=      5-min Rain = 0
KLBW 210930Z 20012G17KT 06/M02 A2993 RMK A01 T00601022  RH  056%=      5-min Rain = 0
KLBW 210935Z 20012G17KT 06/M02 A2992 RMK A01 T00611021  RH  056%=      5-min Rain = 0
KLBW 210940Z 20012G18KT 06/M02 A2992 RMK A01 T00591021  RH  057%=      5-min Rain = 0
KLBW 210945Z 20012G18KT 06/M02 A2992 RMK A01 T00581021  RH  057%=      5-min Rain = 0
KLBW 210950Z 20012G17KT 06/M02 A2992 RMK A01 T00581021  RH  057%=      5-min Rain = 0
KLBW 210955Z 20010G15KT 06/M02 A2992 RMK A01 T00561021  RH  058%=      5-min Rain = 0
KLBW 211000Z 20011G17KT 06/M02 A2992 RMK A01 T00561021  RH  058%=      5-min Rain = 0
KLBW 211005Z 20010KT 06/M02 A2992 RMK A01 T00551021  RH  058%=      5-min Rain = 0
KLBW 211010Z 21009G14KT 05/M02 A2992 RMK A01 T00531021  RH  059%=      5-min Rain = 0
KLBW 211015Z 21011G16KT 05/M02 A2992 RMK A01 T00521021  RH  060%=      5-min Rain = 0
KLBW 211020Z 21011G17KT 05/M02 A2992 RMK A01 T00521021  RH  060%=      5-min Rain = 0
KLBW 211025Z 21011G18KT 05/M02 A2992 RMK A01 T00501021  RH  061%=      5-min Rain = 0
KLBW 211030Z 20011KT 05/M02 A2991 RMK A01 T00501020  RH  061%=      5-min Rain = 0
KLBW 211035Z 20012G17KT 05/M02 A2991 RMK A01 T00501020  RH  061%=      5-min Rain = 0
KLBW 211040Z 20011KT 05/M02 A2991 RMK A01 T00491020  RH  061%=      5-min Rain = 0
KLBW 211045Z 21011G17KT 05/M02 A299 RMK A01 T00481020  RH  062%=      5-min Rain = 0
KLBW 211050Z 21010G16KT 05/M02 A2991 RMK A01 T00461020  RH  062%=      5-min Rain = 0
KLBW 211055Z 21010KT 05/M02 A2991 RMK A01 T00471020  RH  062%=      5-min Rain = 0
KLBW 211100Z 22009G16KT 05/M02 A2991 RMK A01 T00451021  RH  063%=      5-min Rain = 0
KLBW 211105Z 22008G14KT 05/M02 A2991 RMK A01 T00451021  RH  063%=      5-min Rain = 0
KLBW 211110Z 22008G15KT 04/M02 A2991 RMK A01 T00441021  RH  063%=      5-min Rain = 0
KLBW 211115Z 22010G16KT 05/M02 A2991 RMK A01 T00461021  RH  063%=      5-min Rain = 0
KLBW 211120Z 21012G17KT 05/M02 A2991 RMK A01 T00481021  RH  062%=      5-min Rain = 0
KLBW 211125Z 21011KT 05/M02 A2991 RMK A01 T00491021  RH  061%=      5-min Rain = 0
KLBW 211130Z 21012KT 05/M02 A299 RMK A01 T00491021  RH  061%=      5-min Rain = 0
KLBW 211135Z 21011KT 05/M02 A299 RMK A01 T00481022  RH  061%=      5-min Rain = 0
KLBW 211140Z 21010G15KT 05/M02 A299 RMK A01 T00481022  RH  061%=      5-min Rain = 0
KLBW 211145Z 21010KT 05/M02 A299 RMK A01 T00461022  RH  062%=      5-min Rain = 0
KLBW 211150Z 20008KT 04/M02 A299 RMK A01 T00441023  RH  062%=      5-min Rain = 0
KLBW 211155Z 21010KT 04/M02 A299 RMK A01 T00441022  RH  063%=      5-min Rain = 0
KLBW 211200Z 21009KT 04/M02 A299 RMK A01 T00431023  RH  063%=      5-min Rain = 0
KLBW 211205Z 22009KT 04/M02 A2991 RMK A01 T00411023  RH  064%=      5-min Rain = 0
KLBW 211210Z 21010KT 04/M02 A2991 RMK A01 T00391022  RH  065%=      5-min Rain = 0
KLBW 211215Z 22009G15KT 04/M02 A2991 RMK A01 T00391022  RH  065%=      5-min Rain = 0
KLBW 211220Z 22008KT 04/M02 A2991 RMK A01 T00371022  RH  065%=      5-min Rain = 0
KLBW 211225Z 22007KT 03/M02 A2991 RMK A01 T00341023  RH  067%=      5-min Rain = 0
KLBW 211230Z 22008KT 03/M02 A2991 RMK A01 T00321023  RH  068%=      5-min Rain = 0
KLBW 211235Z 22007KT 03/M02 A2991 RMK A01 T00311023  RH  068%=      5-min Rain = 0
KLBW 211240Z 22007KT 03/M02 A2991 RMK A01 T00301023  RH  069%=      5-min Rain = 0
KLBW 211245Z 24005KT 03/M02 A2991 RMK A01 T00281024  RH  069%=      5-min Rain = 0
KLBW 211250Z 24005KT 03/M02 A2991 RMK A01 T00281024  RH  069%=      5-min Rain = 0
KLBW 211255Z 23007KT 03/M02 A2991 RMK A01 T00271024  RH  070%=      5-min Rain = 0
KLBW 211300Z 22007KT 03/M02 A299 RMK A01 T00251024  RH  070%=      5-min Rain = 0
KLBW 211305Z 22006KT 02/M03 A299 RMK A01 T00231025  RH  071%=      5-min Rain = 0
KLBW 211310Z 22005KT 02/M03 A299 RMK A01 T00211026  RH  072%=      5-min Rain = 0
KLBW 211315Z 22006KT 02/M03 A299 RMK A01 T00201025  RH  072%=      5-min Rain = 0
KLBW 211320Z 22005KT 02/M03 A299 RMK A01 T00191026  RH  073%=      5-min Rain = 0
KLBW 211325Z 22005KT 02/M03 A299 RMK A01 T00171026  RH  073%=      5-min Rain = 0
KLBW 211330Z 22004KT 02/M03 A299 RMK A01 T00161027  RH  074%=      5-min Rain = 0
KLBW 211335Z 23003KT 01/M03 A2989 RMK A01 T00141028  RH  074%=      5-min Rain = 0
KLBW 211340Z 23004KT 01/M03 A2989 RMK A01 T00141028  RH  074%=      5-min Rain = 0
KLBW 211345Z 23005KT 01/M03 A2989 RMK A01 T00121029  RH  075%=      5-min Rain = 0
KLBW 211350Z 24004KT 01/M03 A299 RMK A01 T00131028  RH  075%=      5-min Rain = 0
KLBW 211355Z 24004KT 01/M03 A299 RMK A01 T00131028  RH  075%=      5-min Rain = 0
KLBW 211400Z 24004KT 01/M03 A299 RMK A01 T00121029  RH  075%=      5-min Rain = 0
KLBW 211405Z 25004KT 01/M03 A299 RMK A01 T00111029  RH  075%=      5-min Rain = 0
KLBW 211410Z 24004KT 01/M03 A299 RMK A01 T00121028  RH  075%=      5-min Rain = 0
KLBW 211415Z 24004KT 01/M03 A299 RMK A01 T00141027  RH  075%=      5-min Rain = 0
KLBW 211420Z 25004KT 02/M03 A299 RMK A01 T00151026  RH  074%=      5-min Rain = 0
KLBW 211425Z 23005KT 02/M02 A299 RMK A01 T00191024  RH  074%=      5-min Rain = 0
KLBW 211430Z 22006KT 02/M02 A2989 RMK A01 T00241023  RH  072%=      5-min Rain = 0
KLBW 211435Z 22005KT 03/M02 A2989 RMK A01 T00281022  RH  070%=      5-min Rain = 0
KLBW 211440Z 22004KT 03/M02 A2989 RMK A01 T00311022  RH  069%=      5-min Rain = 0
KLBW 211445Z 22005KT 04/M02 A2989 RMK A01 T00361022  RH  067%=      5-min Rain = 0
KLBW 211450Z 23005KT 04/M02 A2989 RMK A01 T00411022  RH  064%=      5-min Rain = 0
KLBW 211455Z 22006KT 04/M02 A2989 RMK A01 T00421022  RH  063%=      5-min Rain = 0
KLBW 211500Z 21008KT 05/M02 A2989 RMK A01 T00451022  RH  062%=      5-min Rain = 0
KLBW 211505Z 21008KT 05/M02 A2988 RMK A01 T00451024  RH  062%=      5-min Rain = 0
KLBW 211510Z 21007KT 05/M02 A2988 RMK A01 T00461024  RH  061%=      5-min Rain = 0
KLBW 211515Z 21008KT 05/M02 A2988 RMK A01 T00521022  RH  059%=      5-min Rain = 0
KLBW 211520Z 20009G14KT 06/M02 A2988 RMK A01 T00581023  RH  056%=      5-min Rain = 0
KLBW 211525Z 21010G15KT 06/M02 A2988 RMK A01 T00601024  RH  055%=      5-min Rain = 0
KLBW 211530Z 21011KT 06/M03 A2987 RMK A01 T00601025  RH  055%=      5-min Rain = 0
KLBW 211535Z 21010G15KT 06/M03 A2987 RMK A01 T00621025  RH  054%=      5-min Rain = 0
KLBW 211540Z 21012G18KT 07/M03 A2987 RMK A01 T00681025  RH  052%=      5-min Rain = 0
KLBW 211545Z 20013G18KT 08/M03 A2987 RMK A01 T00751025  RH  050%=      5-min Rain = 0
KLBW 211550Z 21012G17KT 08/M03 A2986 RMK A01 T00781025  RH  048%=      5-min Rain = 0
KLBW 211555Z 21012G17KT 08/M03 A2987 RMK A01 T00831025  RH  047%=      5-min Rain = 0
KLBW 211600Z 21014G21KT 09/M03 A2986 RMK A01 T00871027  RH  045%=      5-min Rain = 0
KLBW 211605Z 21014G21KT 09/M03 A2986 RMK A01 T00901030  RH  043%=      5-min Rain = 0
KLBW 211610Z 21014G21KT 09/M03 A2986 RMK A01 T00921031  RH  042%=      5-min Rain = 0
KLBW 211615Z 22013G18KT 09/M03 A2986 RMK A01 T00931032  RH  041%=      5-min Rain = 0
KLBW 211620Z 22011G17KT 10/M03 A2986 RMK A01 T01001031  RH  040%=      5-min Rain = 0
KLBW 211625Z 22013G18KT 10/M03 A2986 RMK A01 T01031032  RH  039%=      5-min Rain = 0
KLBW 211630Z 22012KT 11/M03 A2985 RMK A01 T01101030  RH  038%=      5-min Rain = 0
KLBW 211635Z 22013G19KT 11/M03 A2985 RMK A01 T01131031  RH  037%=      5-min Rain = 0
KLBW 211640Z 21013G20KT 12/M03 A2985 RMK A01 T01171030  RH  036%=      5-min Rain = 0
KLBW 211645Z 22014G19KT 12/M03 A2985 RMK A01 T01201030  RH  035%=      5-min Rain = 0
KLBW 211650Z 21015G24KT 12/M03 A2985 RMK A01 T01231031  RH  034%=      5-min Rain = 0
KLBW 211655Z 20016G22KT 13/M03 A2984 RMK A01 T01251032  RH  034%=      5-min Rain = 0
KLBW 211700Z 21014G20KT 13/M03 A2984 RMK A01 T01271032  RH  033%=      5-min Rain = 0
KLBW 211705Z 20014KT 13/M03 A2984 RMK A01 T01281031  RH  033%=      5-min Rain = 0
KLBW 211710Z 20014G19KT 13/M03 A2984 RMK A01 T01331031  RH  032%=      5-min Rain = 0
KLBW 211715Z 20013G19KT 14/M03 A2984 RMK A01 T01381030  RH  031%=      5-min Rain = 0
KLBW 211720Z 20015G21KT 14/M03 A2983 RMK A01 T01401031  RH  031%=      5-min Rain = 0
KLBW 211725Z 20017G23KT 14/M03 A2983 RMK A01 T01411032  RH  030%=      5-min Rain = 0
KLBW 211730Z 20017G23KT 14/M03 A2982 RMK A01 T01361034  RH  031%=      5-min Rain = 0
KLBW 211735Z 20017G28KT 14/M03 A2982 RMK A01 T01441032  RH  030%=      5-min Rain = 0
KLBW 211740Z 20016G22KT 15/M03 A2982 RMK A01 T01461032  RH  029%=      5-min Rain = 0
KLBW 211745Z 20016G26KT 15/M03 A2982 RMK A01 T01511032  RH  028%=      5-min Rain = 0
KLBW 211750Z 21020G25KT 15/M04 A2982 RMK A01 T01471038  RH  028%=      5-min Rain = 0
KLBW 211755Z 21016G21KT 15/M04 A2982 RMK A01 T01511035  RH  028%=      5-min Rain = 0
KLBW 211800Z 21016G22KT 16/M03 A2982 RMK A01 T01611033  RH  026%=      5-min Rain = 0
KLBW 211805Z 20017G23KT 16/M04 A2981 RMK A01 T01631035  RH  026%=      5-min Rain = 0
KLBW 211810Z 21015G24KT 17/M03 A2982 RMK A01 T01701033  RH  025%=      5-min Rain = 0
KLBW 211815Z 21016G25KT 17/M03 A2982 RMK A01 T01701034  RH  025%=      5-min Rain = 0
KLBW 211820Z 21014G22KT 17/M03 A2982 RMK A01 T01711033  RH  025%=      5-min Rain = 0
KLBW 211825Z 22015G20KT 17/M04 A2982 RMK A01 T01711035  RH  024%=      5-min Rain = 0
KLBW 211830Z 21015G21KT 18/M03 A2981 RMK A01 T01761034  RH  024%=      5-min Rain = 0
KLBW 211835Z 22017G24KT 18/M04 A2981 RMK A01 T01791035  RH  023%=      5-min Rain = 0
KLBW 211840Z 21017G22KT 18/M04 A298 RMK A01 T01811035  RH  023%=      5-min Rain = 0
KLBW 211845Z 21017G24KT 19/M03 A2979 RMK A01 T01881034  RH  022%=      5-min Rain = 0
KLBW 211850Z 22018G23KT 19/M04 A2979 RMK A01 T01941035  RH  021%=      5-min Rain = 0
KLBW 211855Z 22016G26KT 21/M04 A2978 RMK A01 T02051035  RH  020%=      5-min Rain = 0
KLBW 211900Z 21015G22KT 21/M03 A2978 RMK A01 T02131034  RH  019%=      5-min Rain = 0
KLBW 211905Z 21016G23KT 22/M04 A2977 RMK A01 T02161039  RH  018%=      5-min Rain = 0
KLBW 211910Z 21019G26KT 21/M05 A2977 RMK A01 T02131046  RH  017%=      5-min Rain = 0
KLBW 211915Z 21017G28KT 21/M05 A2976 RMK A01 T02131050  RH  017%=      5-min Rain = 0
KLBW 211920Z 22019G24KT 21/M06 A2976 RMK A01 T02101057  RH  016%=      5-min Rain = 0
KLBW 211925Z 21019G26KT 21/M06 A2976 RMK A01 T02141057  RH  016%=      5-min Rain = 0
KLBW 211930Z 21022G31KT 22/M06 A2975 RMK A01 T02191060  RH  015%=      5-min Rain = 0
KLBW 211935Z 22022G29KT 22/M06 A2975 RMK A01 T02201062  RH  015%=      5-min Rain = 0
KLBW 211940Z 22019G29KT 23/M06 A2974 RMK A01 T02271062  RH  014%=      5-min Rain = 0
KLBW 211945Z 22019G27KT 22/M07 A2974 RMK A01 T02231065  RH  014%=      5-min Rain = 0
KLBW 211950Z 23020G30KT 22/M07 A2974 RMK A01 T02231066  RH  014%=      5-min Rain = 0
KLBW 211955Z 22019G27KT 22/M07 A2974 RMK A01 T02181067  RH  014%=      5-min Rain = 0
KLBW 212000Z 22021G29KT 22/M07 A2973 RMK A01 T02171068  RH  014%=      5-min Rain = 0
KLBW 212005Z 21017G24KT 22/M07 A2973 RMK A01 T02231065  RH  014%=      5-min Rain = 0
KLBW 212010Z 21019G29KT 22/M07 A2972 RMK A01 T02201068  RH  014%=      5-min Rain = 0
KLBW 212015Z 21017G25KT 22/M07 A2972 RMK A01 T02241066  RH  014%=      5-min Rain = 0
KLBW 212020Z 21019G26KT 22/M07 A2972 RMK A01 T02241069  RH  013%=      5-min Rain = 0
KLBW 212025Z 22021G27KT 22/M07 A2972 RMK A01 T02241069  RH  013%=      5-min Rain = 0
KLBW 212030Z 22020G29KT 22/M07 A2972 RMK A01 T02221071  RH  013%=      5-min Rain = 0
KLBW 212035Z 22018G26KT 22/M07 A2971 RMK A01 T02221072  RH  013%=      5-min Rain = 0
KLBW 212040Z 22015G23KT 23/M07 A2971 RMK A01 T02311066  RH  013%=      5-min Rain = 0
KLBW 212045Z 21019G26KT 23/M07 A297 RMK A01 T02341067  RH  013%=      5-min Rain = 0
KLBW 212050Z 21018G24KT 24/M07 A297 RMK A01 T02361065  RH  013%=      5-min Rain = 0
KLBW 212055Z 21018G26KT 23/M07 A297 RMK A01 T02341068  RH  013%=      5-min Rain = 0
KLBW 212100Z 21019G26KT 23/M07 A297 RMK A01 T02321071  RH  013%=      5-min Rain = 0
KLBW 212105Z 22021G27KT 23/M07 A297 RMK A01 T02291073  RH  013%=      5-min Rain = 0
KLBW 212110Z 22020G27KT 23/M07 A297 RMK A01 T02311073  RH  013%=      5-min Rain = 0
KLBW 212115Z 21016G23KT 23/M07 A297 RMK A01 T02331072  RH  012%=      5-min Rain = 0
KLBW 212120Z 21018G27KT 23/M07 A2969 RMK A01 T02331071  RH  013%=      5-min Rain = 0
KLBW 212125Z 21020G26KT 24/M07 A2969 RMK A01 T02351073  RH  012%=      5-min Rain = 0
KLBW 212130Z 22020G26KT 23/M07 A2969 RMK A01 T02341072  RH  012%=      5-min Rain = 0
KLBW 212135Z 21020G26KT 23/M07 A2969 RMK A01 T02331072  RH  012%=      5-min Rain = 0
KLBW 212140Z 21018G26KT 23/M07 A2969 RMK A01 T02341072  RH  012%=      5-min Rain = 0
KLBW 212145Z 21018G28KT 23/M07 A2969 RMK A01 T02311073  RH  013%=      5-min Rain = 0
KLBW 212150Z 20018G27KT 23/M07 A2969 RMK A01 T02291073  RH  013%=      5-min Rain = 0
KLBW 212155Z 22016G23KT 23/M07 A2969 RMK A01 T02301070  RH  013%=      5-min Rain = 0
KLBW 212200Z 21014G19KT 23/M07 A2969 RMK A01 T02271069  RH  013%=      5-min Rain = 0
KLBW 212205Z 20016G24KT 23/M07 A2969 RMK A01 T02251068  RH  013%=      5-min Rain = 0
KLBW 212210Z 21017G24KT 22/M07 A2969 RMK A01 T02221067  RH  014%=      5-min Rain = 0
KLBW 212215Z 20016G22KT 22/M07 A2969 RMK A01 T02201066  RH  014%=      5-min Rain = 0
KLBW 212220Z 20016G24KT 22/M07 A2968 RMK A01 T02201065  RH  014%=      5-min Rain = 0
KLBW 212225Z 20018G24KT 22/M07 A2968 RMK A01 T02181066  RH  014%=      5-min Rain = 0
KLBW 212230Z 20016G21KT 22/M07 A2968 RMK A01 T02171066  RH  014%=      5-min Rain = 0
KLBW 212235Z 20015G21KT 22/M07 A2968 RMK A01 T02171065  RH  015%=      5-min Rain = 0
KLBW 212240Z 19014G20KT 22/M07 A2968 RMK A01 T02171065  RH  015%=      5-min Rain = 0
KLBW 212245Z 19015G21KT 22/M06 A2967 RMK A01 T02171064  RH  015%=      5-min Rain = 0
KLBW 212250Z 20015G21KT 22/M06 A2967 RMK A01 T02161064  RH  015%=      5-min Rain = 0
KLBW 212255Z 20017G26KT 22/M07 A2967 RMK A01 T02161066  RH  015%=      5-min Rain = 0
KLBW 212300Z 20016G24KT 22/M07 A2968 RMK A01 T02151066  RH  015%=      5-min Rain = 0
KLBW 212305Z 20014G19KT 21/M07 A2968 RMK A01 T02141065  RH  015%=      5-min Rain = 0
KLBW 212310Z 20011G16KT 21/M07 A2968 RMK A01 T02141065  RH  015%=      5-min Rain = 0
KLBW 212315Z 20012G19KT 21/M07 A2967 RMK A01 T02121065  RH  015%=      5-min Rain = 0
KLBW 212320Z 20010G16KT 21/M07 A2967 RMK A01 T02121065  RH  015%=      5-min Rain = 0
KLBW 212325Z 20012KT 21/M07 A2967 RMK A01 T02111065  RH  015%=      5-min Rain = 0
KLBW 212330Z 19010KT 21/M06 A2966 RMK A01 T02081064  RH  015%=      5-min Rain = 0
KLBW 212335Z 19011G18KT 21/M06 A2966 RMK A01 T02061063  RH  016%=      5-min Rain = 0
KLBW 212340Z 19011G16KT 20/M06 A2966 RMK A01 T02041063  RH  016%=      5-min Rain = 0
KLBW 212345Z 19012G19KT 20/M06 A2966 RMK A01 T02041064  RH  016%=      5-min Rain = 0
KLBW 212350Z 19012G17KT 20/M06 A2966 RMK A01 T02041064  RH  016%=      5-min Rain = 0
KLBW 212355Z 19013G18KT 21/M07 A2965 RMK A01 T02061065  RH  016%=      5-min Rain = 0
KLBW 220000Z 20013KT 21/M07 A2966 RMK A01 T02051065  RH  016%=      5-min Rain = 0
KLBW 220005Z 19014G19KT 21/M07 A2966 RMK A01 T02051065  RH  016%=      5-min Rain = 0
KLBW 220010Z 19012G17KT 20/M06 A2966 RMK A01 T02021064  RH  016%=      5-min Rain = 0
KLBW 220015Z 19011KT 20/M06 A2966 RMK A01 T02001063  RH  016%=      5-min Rain = 0
KLBW 220020Z 19012G18KT 20/M06 A2966 RMK A01 T01991063  RH  016%=      5-min Rain = 0
KLBW 220025Z 18012KT 20/M06 A2966 RMK A01 T01981063  RH  017%=      5-min Rain = 0
KLBW 220030Z 18011G16KT 20/M06 A2966 RMK A01 T01961064  RH  017%=      5-min Rain = 0
KLBW 220035Z 18012KT 20/M06 A2966 RMK A01 T01951064  RH  017%=      5-min Rain = 0
KLBW 220040Z 18011G17KT 19/M06 A2966 RMK A01 T01931063  RH  017%=      5-min Rain = 0
KLBW 220045Z 19014G19KT 20/M06 A2966 RMK A01 T01961064  RH  017%=      5-min Rain = 0
KLBW 220050Z 18012G17KT 19/M06 A2967 RMK A01 T01941062  RH  017%=      5-min Rain = 0
KLBW 220055Z 17011G17KT 19/M06 A2967 RMK A01 T01901059  RH  018%=      5-min Rain = 0
KLBW 220100Z 18011G18KT 19/M05 A2967 RMK A01 T01851049  RH  020%=      5-min Rain = 0
KLBW 220105Z 18011G16KT 18/M03 A2967 RMK A01 T01801033  RH  023%=      5-min Rain = 0
KLBW 220110Z 17013G18KT 18/M02 A2967 RMK A01 T01761022  RH  026%=      5-min Rain = 0
KLBW 220115Z 17012G18KT 17/M02 A2967 RMK A01 T01741018  RH  027%=      5-min Rain = 0
KLBW 220120Z 18012G18KT 17/M02 A2967 RMK A01 T01701015  RH  028%=      5-min Rain = 0
KLBW 220125Z 18013KT 17/M01 A2967 RMK A01 T01691013  RH  029%=      5-min Rain = 0
KLBW 220130Z 18014G21KT 17/M01 A2967 RMK A01 T01681012  RH  029%=      5-min Rain = 0
KLBW 220135Z 18013G18KT 17/M01 A2967 RMK A01 T01661012  RH  030%=      5-min Rain = 0
KLBW 220140Z 18013G18KT 16/M01 A2967 RMK A01 T01641012  RH  030%=      5-min Rain = 0
KLBW 220145Z 18014G19KT 16/M01 A2967 RMK A01 T01631011  RH  031%=      5-min Rain = 0
KLBW 220150Z 18013G19KT 16/M01 A2967 RMK A01 T01591011  RH  032%=      5-min Rain = 0
KLBW 220155Z 18015G22KT 16/M01 A2967 RMK A01 T01571010  RH  032%=      5-min Rain = 0
KLBW 220200Z 18015G20KT 16/M01 A2967 RMK A01 T01551009  RH  033%=      5-min Rain = 0
KLBW 220205Z 18014G20KT 15/M01 A2967 RMK A01 T01531009  RH  033%=      5-min Rain = 0
KLBW 220210Z 18015G20KT 15/M01 A2967 RMK A01 T01521008  RH  034%=      5-min Rain = 0
KLBW 220215Z 18017G24KT 15/M01 A2967 RMK A01 T01511008  RH  034%=      5-min Rain = 0
KLBW 220220Z 18016G21KT 15/M01 A2967 RMK A01 T01501008  RH  034%=      5-min Rain = 0
KLBW 220225Z 18016G22KT 15/M01 A2967 RMK A01 T01491008  RH  035%=      5-min Rain = 0
KLBW 220230Z 18017G22KT 15/M01 A2967 RMK A01 T01481007  RH  035%=      5-min Rain = 0
KLBW 220235Z 18017G23KT 15/M01 A2967 RMK A01 T01481007  RH  035%=      5-min Rain = 0
KLBW 220240Z 17014G20KT 15/M01 A2967 RMK A01 T01471008  RH  035%=      5-min Rain = 0
KLBW 220245Z 18015G22KT 15/M01 A2967 RMK A01 T01471008  RH  035%=      5-min Rain = 0
KLBW 220250Z 17014G22KT 15/M01 A2967 RMK A01 T01451008  RH  035%=      5-min Rain = 0
KLBW 220255Z 18013G19KT 14/M01 A2967 RMK A01 T01441009  RH  035%=      5-min Rain = 0
KLBW 220300Z 17014G20KT 14/M01 A2967 RMK A01 T01431009  RH  036%=      5-min Rain = 0
KLBW 220305Z 18013G19KT 14/M01 A2967 RMK A01 T01411009  RH  036%=      5-min Rain = 0
KLBW 220310Z 18015G21KT 14/M01 A2967 RMK A01 T01401009  RH  036%=      5-min Rain = 0
KLBW 220315Z 18015G23KT 14/M01 A2967 RMK A01 T01401009  RH  036%=      5-min Rain = 0
KLBW 220320Z 18015G22KT 14/M01 A2968 RMK A01 T01391009  RH  037%=      5-min Rain = 0
KLBW 220325Z 18016G21KT 14/M01 A2967 RMK A01 T01371009  RH  037%=      5-min Rain = 0
KLBW 220330Z 18017G26KT 14/M01 A2967 RMK A01 T01371009  RH  037%=      5-min Rain = 0
KLBW 220335Z 18016G23KT 14/M01 A2967 RMK A01 T01351009  RH  037%=      5-min Rain = 0
KLBW 220340Z 18015G22KT 13/M01 A2967 RMK A01 T01341009  RH  038%=      5-min Rain = 0
KLBW 220345Z 18016G23KT 13/M01 A2967 RMK A01 T01331009  RH  038%=      5-min Rain = 0
KLBW 220350Z 18014G19KT 13/M01 A2967 RMK A01 T01321009  RH  038%=      5-min Rain = 0
KLBW 220355Z 18017G23KT 13/M01 A2967 RMK A01 T01311009  RH  038%=      5-min Rain = 0
KLBW 220400Z 18016G24KT 13/M01 A2967 RMK A01 T01301009  RH  039%=      5-min Rain = 0
KLBW 220405Z 18018G26KT 13/M01 A2967 RMK A01 T01291008  RH  039%=      5-min Rain = 0
KLBW 220410Z 18017G25KT 13/M01 A2967 RMK A01 T01271008  RH  040%=      5-min Rain = 0
KLBW 220415Z 18015G22KT 13/M01 A2967 RMK A01 T01251007  RH  040%=      5-min Rain = 0
KLBW 220420Z 18016G22KT 13/M01 A2968 RMK A01 T01251007  RH  041%=      5-min Rain = 0
KLBW 220425Z 18015G23KT 12/M01 A2967 RMK A01 T01231007  RH  041%=      5-min Rain = 0
KLBW 220430Z 18016G21KT 12/M01 A2967 RMK A01 T01221007  RH  041%=      5-min Rain = 0
KLBW 220435Z 18016G30KT 12/M01 A2967 RMK A01 T01211006  RH  042%=      5-min Rain = 0
KLBW 220440Z 18017G24KT 12/M01 A2967 RMK A01 T01201006  RH  042%=      5-min Rain = 0
KLBW 220445Z 18016G28KT 12/M01 A2967 RMK A01 T01191006  RH  043%=      5-min Rain = 0
KLBW 220450Z 19018G25KT 12/M01 A2967 RMK A01 T01181006  RH  043%=      5-min Rain = 0
KLBW 220455Z 18018G24KT 12/M01 A2967 RMK A01 T01171006  RH  043%=      5-min Rain = 0
KLBW 220500Z 18016G24KT 12/M01 A2967 RMK A01 T01161005  RH  043%=      5-min Rain = 0
KLBW 220505Z 19015G23KT 11/M01 A2968 RMK A01 T01141005  RH  044%=      5-min Rain = 0
KLBW 220510Z 19013G22KT 11/M01 A2968 RMK A01 T01121005  RH  045%=      5-min Rain = 0
KLBW 220515Z 19015G23KT 11/M00 A2968 RMK A01 T01111004  RH  046%=      5-min Rain = 0
KLBW 220520Z 18016G25KT 11/M00 A2968 RMK A01 T01101002  RH  046%=      5-min Rain = 0
KLBW 220525Z 18014G19KT 11/M00 A2968 RMK A01 T01091001  RH  047%=      5-min Rain = 0
KLBW 220530Z 18017G25KT 11/00 A2968 RMK A01 T01080000  RH  048%=      5-min Rain = 0
KLBW 220535Z 18015G20KT 11/00 A2968 RMK A01 T01070001  RH  048%=      5-min Rain = 0
KLBW 220540Z 18014G19KT 11/00 A2968 RMK A01 T01050002  RH  049%=      5-min Rain = 0
KLBW 220545Z 18016G23KT 11/00 A2968 RMK A01 T01050004  RH  050%=      5-min Rain = 0
KLBW 220550Z 18015G21KT 10/00 A2968 RMK A01 T01040004  RH  051%=      5-min Rain = 0
KLBW 220555Z 18016G25KT 10/01 A2968 RMK A01 T01040005  RH  051%=      5-min Rain = 0

Page generated in 0.0268 seconds.